Tuesday, October 16, 2018, 6:00 AM EDT
Back to Local

K40B, Clayton Lake

Location: Ashland, ME, United States Lat: 46.617
Local Time: 6:00 AM EDT (10:00 GMT) Lon: -69.533
Time Zone: US/Eastern Elev: 1030 ft

Show me the last for .
Show Decoded

2018-10-16 05:16 METAR K40B 160916Z AUTO 23007G33KT 110V330 03/M01 A2946 RMK AO1 PK WND
                 24033/0812 SLP983 T00261012 50005 P0000 60001 =
2018-10-16 04:16 METAR K40B 160816Z AUTO 22006G25KT 100V300 04/M01 A2947 RMK AO1 SLP987 T00411007
                 53002 P0000 =
2018-10-16 03:16 METAR K40B 160716Z AUTO 23009G23KT 180V280 04/00 A2947 RMK AO1 PK WND 20035/0655
                 SLP985 T00450001 50001 =
2018-10-16 02:16 METAR K40B 160616Z AUTO 22009G27KT 080V360 06/00 A2945 RMK AO1 PK WND 19033/0542
                 SLP980 T00570003 10116 20056 58007 60004 =
2018-10-16 01:16 METAR K40B 160516Z AUTO 20009G22KT 080V240 08/05 A2947 RMK AO1 PK WND 22031/0459
                 SLP984 T00830048 401230009 55011 =
2018-10-16 00:16 METAR K40B 160416Z AUTO VRB05G29KT 10/07 A2946 RMK AO1 PK WND 21029/0401 SLP981
                 T01000070 57016 =
2018-10-15 23:16 METAR K40B 160316Z AUTO 21011G24KT 170V280 11/10 A2948 RMK AO1 PK WND 21027/0232
                 SLP987 T01140096 56025 P0002 60004 =
2018-10-15 22:16 METAR K40B 160216Z AUTO 18011KT 11/10 A2950 RMK AO1 SLP996 T01060103 56037 P0002
                 =
2018-10-15 21:16 METAR K40B 160116Z AUTO 17012G19KT 10/10 A2951 RMK AO1 SLP999 T00990097 57047 =
2018-10-15 20:16 METAR K40B 160016Z AUTO 17010G23KT 10/09 A2955 RMK AO1 SLP014 T00950089 10110
                 20067 56055 P0003 60021 =
2018-10-15 19:16 METAR K40B 152316Z AUTO 17008G14KT 130V190 09/08 A2961 RMK AO1 SLP034 T00860083
                 56058 P0003 =
2018-10-15 18:16 METAR K40B 152216Z AUTO 16006G18KT 100V200 08/08 A2965 RMK AO1 PRESRR SLP049
                 T00800077 58064 P0002 =
2018-10-15 17:16 METAR K40B 152116Z AUTO 15009G17KT 090V210 07/07 A2972 RMK AO1 PRESRR SLP073
                 T00740072 58051 P0006 60013 =
2018-10-15 16:16 METAR K40B 152016Z AUTO VRB03G12KT 07/06 A2979 RMK AO1 SLP095 T00680064 58042
                 P0006 =
2018-10-15 15:16 METAR K40B 151916Z AUTO 16009G16KT 110V190 08/04 A2985 RMK AO1 PK WND 14026/1812
                 SLP119 T00790044 56038 =
2018-10-15 14:16 METAR K40B 151816Z AUTO 18016G21KT 11/01 A2988 RMK AO1 PK WND 18026/1748 SLP128
                 T01090007 10123 20046 58047 =
2018-10-15 13:16 METAR K40B 151716Z AUTO 15009G16KT 070V180 12/M01 A2992 RMK AO1 SLP142 T01161010
                 58045 =
2018-10-15 12:16 METAR K40B 151616Z AUTO 15011G27KT 120V190 11/00 A2997 RMK AO1 PK WND 17027/1604
                 SLP163 T01111001 58032 =
2018-10-15 11:16 METAR K40B 151516Z AUTO 17013G21KT 10/M01 A3002 RMK AO1 SLP180 T01041012 58024 =
2018-10-15 10:19 METAR K40B 151419Z AUTO 17009G13KT 150V200 10/02 A3005 RMK AO1 SLP192 T01000017
                 58012 =
2018-10-15 09:16 METAR K40B 151316Z AUTO 17009KT 07/01 A3007 RMK AO1 SLP199 T00680013 56015 =
2018-10-15 08:16 METAR K40B 151216Z AUTO VRB02KT 05/01 A3009 RMK AO1 SLP207 T00490012 10050 20015
                 55004 =
2018-10-15 07:16 METAR K40B 151116Z AUTO 00000KT 03/01 A3009 RMK AO1 SLP205 T00340007 58003 =
2018-10-15 06:16 METAR K40B 151016Z AUTO 00000KT 03/01 A3012 RMK AO1 SLP215 T00340011 52005 =

Support USWX by starting your Amazon purchase here.